Nsu Inspire — 3FID5 — position and weather

sailwx.info

Track history (hours):
 
Tides and Currents Weather Stations Pressure Air Temp Water Temp Dewpoint Dewpoint Depression Visibility Wind Speed Wind Dir Waves Ship Positions

Nsu Inspire

Last reported at 2017-Apr-14 16:43 UTC. Time now 2017-Apr-27 18:47 UTC.
Position N 38°11' E 122°18'.
Warning: this ship's position is 13 days out of date.

Length 330 m; draft 14.3 m.

Type: Cargo ship. MMSI: 372998000.

Date/timePositionNaut miles runAvg speedWind from/ knotsBaromVisibWave heightAir tempDewpointWater temp
2017-Apr-14 16:43N 38°11' E 122°18'312.6
2017-Apr-14 16:29N 38°12' E 122°15'812.4
2017-Apr-14 15:48N 38°14' E 122°04'412.4
2017-Apr-14 15:28N 38°16' E 121°59'612.4
2017-Apr-14 15:00N 38°17' E 121°52'2112.6
2017-Apr-14 13:20N 38°24' E 121°27'512.9
2017-Apr-14 12:56N 38°25' E 121°20'613.2
2017-Apr-14 12:29N 38°26' E 121°13'2411.5
2017-Apr-14 10:22N 38°34' E 120°43'512.8
2017-Apr-14 10:00N 38°35' E 120°38'612.4
2017-Apr-14 09:30N 38°36' E 120°30'612.1
2017-Apr-14 09:00N 38°36' E 120°22'611.9
2017-Apr-14 08:30N 38°37' E 120°14'611.7
2017-Apr-14 08:00N 38°38' E 120°07'611.6
2017-Apr-14 07:30N 38°39' E 119°60'611.5
2017-Apr-14 06:59N 38°40' E 119°52'811.5
2017-Apr-14 06:15N 38°41' E 119°41'  
2017-Apr-11 07:04N 38°29' E 121°13'211.7
2017-Apr-11 06:56N 38°29' E 121°15'811.8
2017-Apr-11 06:15N 38°26' E 121°24'311.9
2017-Apr-11 06:00N 38°26' E 121°28'1111.8
2017-Apr-11 05:02N 38°23' E 121°42'010.9
2017-Apr-11 04:59N 38°22' E 121°43'611.8
2017-Apr-11 04:30N 38°21' E 121°50'611.8
2017-Apr-11 03:59N 38°19' E 121°57'911.8
2017-Apr-11 03:16N 38°17' E 122°08'311.6
2017-Apr-11 03:00N 38°16' E 122°11'611.5
2017-Apr-11 02:30N 38°14' E 122°18'611.1
2017-Apr-11 01:57N 38°11' E 122°25'510.5
2017-Apr-11 01:29N 38°08' E 122°30'  
Track history (hours):
 
Tides and Currents Weather Stations Pressure Air Temp Water Temp Dewpoint Dewpoint Depression Visibility Wind Speed Wind Dir Waves Ship Positions

Nsu Inspire

Last reported at 2017-Apr-14 16:43 UTC. Time now 2017-Apr-27 18:47 UTC.
Position N 38°11' E 122°18'.
Warning: this ship's position is 13 days out of date.

Length 330 m; draft 14.3 m.

Type: Cargo ship. MMSI: 372998000.

Date/timePositionNaut miles runAvg speedWind from/ knotsBaromVisibWave heightAir tempDewpointWater temp
2017-Apr-14 16:43N 38°11' E 122°18'312.6
2017-Apr-14 16:29N 38°12' E 122°15'812.4
2017-Apr-14 15:48N 38°14' E 122°04'412.4
2017-Apr-14 15:28N 38°16' E 121°59'612.4
2017-Apr-14 15:00N 38°17' E 121°52'2112.6
2017-Apr-14 13:20N 38°24' E 121°27'512.9
2017-Apr-14 12:56N 38°25' E 121°20'613.2
2017-Apr-14 12:29N 38°26' E 121°13'2411.5
2017-Apr-14 10:22N 38°34' E 120°43'512.8
2017-Apr-14 10:00N 38°35' E 120°38'612.4
2017-Apr-14 09:30N 38°36' E 120°30'612.1
2017-Apr-14 09:00N 38°36' E 120°22'611.9
2017-Apr-14 08:30N 38°37' E 120°14'611.7
2017-Apr-14 08:00N 38°38' E 120°07'611.6
2017-Apr-14 07:30N 38°39' E 119°60'611.5
2017-Apr-14 06:59N 38°40' E 119°52'811.5
2017-Apr-14 06:15N 38°41' E 119°41'  
2017-Apr-11 07:04N 38°29' E 121°13'211.7
2017-Apr-11 06:56N 38°29' E 121°15'811.8
2017-Apr-11 06:15N 38°26' E 121°24'311.9
2017-Apr-11 06:00N 38°26' E 121°28'1111.8
2017-Apr-11 05:02N 38°23' E 121°42'010.9
2017-Apr-11 04:59N 38°22' E 121°43'611.8
2017-Apr-11 04:30N 38°21' E 121°50'611.8
2017-Apr-11 03:59N 38°19' E 121°57'911.8
2017-Apr-11 03:16N 38°17' E 122°08'311.6
2017-Apr-11 03:00N 38°16' E 122°11'611.5
2017-Apr-11 02:30N 38°14' E 122°18'611.1
2017-Apr-11 01:57N 38°11' E 122°25'510.5
2017-Apr-11 01:29N 38°08' E 122°30'  

Dump ship's entire track history